sensor_id;sensor_type;location;lat;lon;timestamp;pressure;altitude;pressure_sealevel;temperature;humidity
7532;BME280;3807;49.030;8.714;2024-02-26T00:00:05;97421.81;;;9.44;62.94
7532;BME280;3807;49.030;8.714;2024-02-26T00:02:37;97419.84;;;9.49;63.03
7532;BME280;3807;49.030;8.714;2024-02-26T00:05:06;97423.91;;;9.51;63.17
7532;BME280;3807;49.030;8.714;2024-02-26T00:07:32;97416.66;;;9.45;63.56
7532;BME280;3807;49.030;8.714;2024-02-26T00:09:58;97424.00;;;9.50;62.96
7532;BME280;3807;49.030;8.714;2024-02-26T00:12:23;97423.28;;;9.48;63.42
7532;BME280;3807;49.030;8.714;2024-02-26T00:14:48;97431.81;;;9.47;63.30
7532;BME280;3807;49.030;8.714;2024-02-26T00:17:15;97426.28;;;9.40;63.27
7532;BME280;3807;49.030;8.714;2024-02-26T00:19:41;97431.63;;;9.50;62.94
7532;BME280;3807;49.030;8.714;2024-02-26T00:22:06;97432.25;;;9.53;63.26
7532;BME280;3807;49.030;8.714;2024-02-26T00:24:32;97441.97;;;9.61;62.73
7532;BME280;3807;49.030;8.714;2024-02-26T00:26:57;97445.59;;;9.57;62.92
7532;BME280;3807;49.030;8.714;2024-02-26T00:29:22;97445.59;;;9.57;63.07
7532;BME280;3807;49.030;8.714;2024-02-26T00:31:48;97451.50;;;9.58;63.14
7532;BME280;3807;49.030;8.714;2024-02-26T00:34:14;97451.31;;;9.61;62.60
7532;BME280;3807;49.030;8.714;2024-02-26T00:36:39;97455.66;;;9.59;62.88
7532;BME280;3807;49.030;8.714;2024-02-26T00:39:04;97457.66;;;9.53;62.86
7532;BME280;3807;49.030;8.714;2024-02-26T00:41:30;97461.19;;;9.51;62.91
7532;BME280;3807;49.030;8.714;2024-02-26T00:43:55;97464.09;;;9.45;63.81
7532;BME280;3807;49.030;8.714;2024-02-26T00:46:20;97471.09;;;9.41;63.19
7532;BME280;3807;49.030;8.714;2024-02-26T00:48:46;97473.56;;;9.43;63.35
7532;BME280;3807;49.030;8.714;2024-02-26T00:51:11;97476.16;;;9.41;63.89
7532;BME280;3807;49.030;8.714;2024-02-26T00:53:36;97480.88;;;9.47;63.22
7532;BME280;3807;49.030;8.714;2024-02-26T00:56:02;97452.94;;;9.47;63.43
7532;BME280;3807;49.030;8.714;2024-02-26T00:58:27;97462.22;;;9.48;63.78
7532;BME280;3807;49.030;8.714;2024-02-26T01:00:53;97478.19;;;9.50;63.37
7532;BME280;3807;49.030;8.714;2024-02-26T01:03:18;97484.81;;;9.53;63.02
7532;BME280;3807;49.030;8.714;2024-02-26T01:05:44;97464.19;;;9.43;63.93
7532;BME280;3807;49.030;8.714;2024-02-26T01:08:09;97468.81;;;9.51;64.06
7532;BME280;3807;49.030;8.714;2024-02-26T01:10:35;97461.75;;;9.42;63.93
7532;BME280;3807;49.030;8.714;2024-02-26T01:13:01;97456.75;;;9.40;63.75
7532;BME280;3807;49.030;8.714;2024-02-26T01:15:26;97461.84;;;9.40;64.00
7532;BME280;3807;49.030;8.714;2024-02-26T01:17:52;97460.84;;;9.43;63.96
7532;BME280;3807;49.030;8.714;2024-02-26T01:20:18;97451.50;;;9.43;63.64
7532;BME280;3807;49.030;8.714;2024-02-26T01:22:43;97441.44;;;9.42;63.85
7532;BME280;3807;49.030;8.714;2024-02-26T01:25:09;97456.41;;;9.46;63.32
7532;BME280;3807;49.030;8.714;2024-02-26T01:27:35;97465.41;;;9.52;63.58
7532;BME280;3807;49.030;8.714;2024-02-26T01:30:04;97446.88;;;9.50;64.01
7532;BME280;3807;49.030;8.714;2024-02-26T01:32:30;97442.16;;;9.44;64.03
7532;BME280;3807;49.030;8.714;2024-02-26T01:34:56;97452.88;;;9.49;63.74
7532;BME280;3807;49.030;8.714;2024-02-26T01:37:22;97448.50;;;9.37;64.10
7532;BME280;3807;49.030;8.714;2024-02-26T01:39:47;97453.22;;;9.28;64.98
7532;BME280;3807;49.030;8.714;2024-02-26T01:42:13;97449.13;;;9.26;64.98
7532;BME280;3807;49.030;8.714;2024-02-26T01:44:38;97477.06;;;9.40;64.56
7532;BME280;3807;49.030;8.714;2024-02-26T01:47:04;97469.81;;;9.34;65.11
7532;BME280;3807;49.030;8.714;2024-02-26T01:49:30;97479.78;;;9.23;65.58
7532;BME280;3807;49.030;8.714;2024-02-26T01:51:56;97474.81;;;9.21;65.46
7532;BME280;3807;49.030;8.714;2024-02-26T01:54:22;97478.69;;;9.27;65.47
7532;BME280;3807;49.030;8.714;2024-02-26T01:56:49;97484.88;;;9.37;65.11
7532;BME280;3807;49.030;8.714;2024-02-26T01:59:16;97487.34;;;9.39;65.39
7532;BME280;3807;49.030;8.714;2024-02-26T02:01:44;97488.59;;;9.32;65.78
7532;BME280;3807;49.030;8.714;2024-02-26T02:04:11;97487.69;;;9.33;65.62
7532;BME280;3807;49.030;8.714;2024-02-26T02:06:38;97494.50;;;9.32;65.28
7532;BME280;3807;49.030;8.714;2024-02-26T02:09:03;97485.31;;;9.29;65.65
7532;BME280;3807;49.030;8.714;2024-02-26T02:11:33;97486.94;;;9.30;65.78
7532;BME280;3807;49.030;8.714;2024-02-26T02:13:58;97486.94;;;9.30;65.40
7532;BME280;3807;49.030;8.714;2024-02-26T02:16:24;97486.41;;;9.25;66.04
7532;BME280;3807;49.030;8.714;2024-02-26T02:18:50;97493.84;;;9.14;66.24
7532;BME280;3807;49.030;8.714;2024-02-26T02:21:15;97495.41;;;9.31;65.67
7532;BME280;3807;49.030;8.714;2024-02-26T02:23:40;97487.31;;;9.24;66.21
7532;BME280;3807;49.030;8.714;2024-02-26T02:26:11;97478.97;;;9.22;66.57
7532;BME280;3807;49.030;8.714;2024-02-26T02:28:36;97476.56;;;9.05;67.49
7532;BME280;3807;49.030;8.714;2024-02-26T02:31:02;97498.25;;;9.11;66.65
7532;BME280;3807;49.030;8.714;2024-02-26T02:33:29;97491.03;;;9.19;66.34
7532;BME280;3807;49.030;8.714;2024-02-26T02:35:54;97489.03;;;9.24;65.92
7532;BME280;3807;49.030;8.714;2024-02-26T02:38:20;97489.28;;;9.19;66.92
7532;BME280;3807;49.030;8.714;2024-02-26T02:40:45;97495.94;;;9.36;66.55
7532;BME280;3807;49.030;8.714;2024-02-26T02:43:11;97487.53;;;9.50;65.46
7532;BME280;3807;49.030;8.714;2024-02-26T02:45:36;97487.25;;;9.40;66.06
7532;BME280;3807;49.030;8.714;2024-02-26T02:48:02;97481.59;;;9.21;66.43
7532;BME280;3807;49.030;8.714;2024-02-26T02:50:27;97488.59;;;9.32;65.78
7532;BME280;3807;49.030;8.714;2024-02-26T02:52:54;97491.03;;;9.33;66.44
7532;BME280;3807;49.030;8.714;2024-02-26T02:55:19;97483.59;;;9.30;66.83
7532;BME280;3807;49.030;8.714;2024-02-26T02:57:45;97484.50;;;9.15;66.67
7532;BME280;3807;49.030;8.714;2024-02-26T03:00:11;97484.56;;;9.13;66.28
7532;BME280;3807;49.030;8.714;2024-02-26T03:02:36;97488.81;;;9.13;66.96
7532;BME280;3807;49.030;8.714;2024-02-26T03:05:03;97490.69;;;9.25;66.56
7532;BME280;3807;49.030;8.714;2024-02-26T03:07:28;97489.13;;;9.22;66.91
7532;BME280;3807;49.030;8.714;2024-02-26T03:09:54;97480.50;;;9.25;66.63
7532;BME280;3807;49.030;8.714;2024-02-26T03:12:20;97486.28;;;9.13;67.20
7532;BME280;3807;49.030;8.714;2024-02-26T03:14:45;97483.94;;;9.24;66.91
7532;BME280;3807;49.030;8.714;2024-02-26T03:17:10;97485.63;;;9.09;66.86
7532;BME280;3807;49.030;8.714;2024-02-26T03:19:36;97479.84;;;9.07;67.15
7532;BME280;3807;49.030;8.714;2024-02-26T03:22:01;97480.66;;;9.07;67.35
7532;BME280;3807;49.030;8.714;2024-02-26T03:24:27;97469.41;;;8.97;67.52
7532;BME280;3807;49.030;8.714;2024-02-26T03:26:52;97466.84;;;8.97;68.01
7532;BME280;3807;49.030;8.714;2024-02-26T03:29:18;97468.97;;;9.19;67.02
7532;BME280;3807;49.030;8.714;2024-02-26T03:31:43;97465.44;;;9.22;66.99
7532;BME280;3807;49.030;8.714;2024-02-26T03:34:08;97462.63;;;9.12;67.45
7532;BME280;3807;49.030;8.714;2024-02-26T03:36:34;97464.94;;;9.31;67.07
7532;BME280;3807;49.030;8.714;2024-02-26T03:38:59;97464.50;;;9.09;67.03
7532;BME280;3807;49.030;8.714;2024-02-26T03:41:24;97459.91;;;9.15;67.86
7532;BME280;3807;49.030;8.714;2024-02-26T03:43:50;97452.38;;;9.14;67.37
7532;BME280;3807;49.030;8.714;2024-02-26T03:46:15;97455.09;;;9.11;67.71
7532;BME280;3807;49.030;8.714;2024-02-26T03:48:41;97448.03;;;9.16;67.63
7532;BME280;3807;49.030;8.714;2024-02-26T03:51:08;97456.38;;;9.18;67.64
7532;BME280;3807;49.030;8.714;2024-02-26T03:53:33;97455.28;;;9.07;67.23
7532;BME280;3807;49.030;8.714;2024-02-26T03:56:03;97452.38;;;9.14;67.30
7532;BME280;3807;49.030;8.714;2024-02-26T03:58:28;97450.97;;;8.94;68.23
7532;BME280;3807;49.030;8.714;2024-02-26T04:00:53;97444.56;;;9.17;67.88
7532;BME280;3807;49.030;8.714;2024-02-26T04:03:19;97440.88;;;9.22;68.60
7532;BME280;3807;49.030;8.714;2024-02-26T04:05:44;97434.34;;;9.18;67.85
7532;BME280;3807;49.030;8.714;2024-02-26T04:08:10;97430.44;;;9.27;68.02
7532;BME280;3807;49.030;8.714;2024-02-26T04:10:36;97421.34;;;9.09;68.65
7532;BME280;3807;49.030;8.714;2024-02-26T04:13:04;97424.63;;;9.11;68.42
7532;BME280;3807;49.030;8.714;2024-02-26T04:15:29;97414.03;;;9.18;67.69
7532;BME280;3807;49.030;8.714;2024-02-26T04:17:55;97411.78;;;9.28;67.81
7532;BME280;3807;49.030;8.714;2024-02-26T04:20:21;97416.66;;;9.31;67.99
7532;BME280;3807;49.030;8.714;2024-02-26T04:22:47;97407.03;;;9.22;68.22
7532;BME280;3807;49.030;8.714;2024-02-26T04:25:12;97410.28;;;9.24;68.23
7532;BME280;3807;49.030;8.714;2024-02-26T04:27:38;97418.81;;;9.23;67.90
7532;BME280;3807;49.030;8.714;2024-02-26T04:30:05;97422.56;;;9.32;67.97
7532;BME280;3807;49.030;8.714;2024-02-26T04:32:30;97415.13;;;9.28;67.71
7532;BME280;3807;49.030;8.714;2024-02-26T04:34:55;97420.03;;;9.17;67.78
7532;BME280;3807;49.030;8.714;2024-02-26T04:37:21;97422.00;;;9.12;68.65
7532;BME280;3807;49.030;8.714;2024-02-26T04:39:46;97426.91;;;9.15;68.72
7532;BME280;3807;49.030;8.714;2024-02-26T04:42:11;97428.28;;;9.21;68.51
7532;BME280;3807;49.030;8.714;2024-02-26T04:44:37;97417.47;;;9.17;67.68
7532;BME280;3807;49.030;8.714;2024-02-26T04:47:02;97430.06;;;9.19;68.43
7532;BME280;3807;49.030;8.714;2024-02-26T04:49:28;97420.91;;;9.30;68.12
7532;BME280;3807;49.030;8.714;2024-02-26T04:51:53;97429.97;;;9.20;68.46
7532;BME280;3807;49.030;8.714;2024-02-26T04:54:19;97436.72;;;9.21;68.40
7532;BME280;3807;49.030;8.714;2024-02-26T04:56:44;97431.44;;;9.24;67.85
7532;BME280;3807;49.030;8.714;2024-02-26T04:59:09;97439.16;;;9.51;66.75
7532;BME280;3807;49.030;8.714;2024-02-26T05:01:35;97438.16;;;9.25;66.80
7532;BME280;3807;49.030;8.714;2024-02-26T05:04:02;97444.03;;;9.12;66.91
7532;BME280;3807;49.030;8.714;2024-02-26T05:06:28;97444.13;;;9.10;68.05
7532;BME280;3807;49.030;8.714;2024-02-26T05:08:54;97444.47;;;9.04;68.04
7532;BME280;3807;49.030;8.714;2024-02-26T05:11:19;97446.91;;;9.05;68.01
7532;BME280;3807;49.030;8.714;2024-02-26T05:13:44;97447.56;;;9.23;67.62
7532;BME280;3807;49.030;8.714;2024-02-26T05:16:10;97454.09;;;9.13;67.46
7532;BME280;3807;49.030;8.714;2024-02-26T05:18:36;97457.19;;;9.18;67.85
7532;BME280;3807;49.030;8.714;2024-02-26T05:21:01;97458.75;;;9.35;67.18
7532;BME280;3807;49.030;8.714;2024-02-26T05:23:28;97458.66;;;9.22;67.67
7532;BME280;3807;49.030;8.714;2024-02-26T05:25:54;97469.56;;;9.53;67.11
7532;BME280;3807;49.030;8.714;2024-02-26T05:28:19;97478.69;;;9.27;67.55
7532;BME280;3807;49.030;8.714;2024-02-26T05:30:45;97474.25;;;9.30;67.15
7532;BME280;3807;49.030;8.714;2024-02-26T05:33:11;97480.69;;;9.22;68.50
7532;BME280;3807;49.030;8.714;2024-02-26T05:35:37;97474.81;;;9.21;68.69
7532;BME280;3807;49.030;8.714;2024-02-26T05:38:02;97481.94;;;9.15;67.75
7532;BME280;3807;49.030;8.714;2024-02-26T05:40:28;97488.00;;;9.57;67.27
7532;BME280;3807;49.030;8.714;2024-02-26T05:42:54;97490.69;;;9.25;68.23
7532;BME280;3807;49.030;8.714;2024-02-26T05:45:19;97498.31;;;9.39;68.24
7532;BME280;3807;49.030;8.714;2024-02-26T05:47:44;97500.72;;;9.26;68.28
7532;BME280;3807;49.030;8.714;2024-02-26T05:50:10;97502.47;;;9.26;68.25
7532;BME280;3807;49.030;8.714;2024-02-26T05:52:36;97505.34;;;9.20;68.69
7532;BME280;3807;49.030;8.714;2024-02-26T05:55:09;97503.47;;;9.38;68.28
7532;BME280;3807;49.030;8.714;2024-02-26T05:57:34;97501.72;;;9.24;68.71
7532;BME280;3807;49.030;8.714;2024-02-26T06:00:00;97510.00;;;9.27;68.42
7532;BME280;3807;49.030;8.714;2024-02-26T06:02:32;97510.88;;;9.12;68.40
7532;BME280;3807;49.030;8.714;2024-02-26T06:04:57;97510.88;;;9.12;69.78
7532;BME280;3807;49.030;8.714;2024-02-26T06:07:23;97509.75;;;9.32;68.21
7532;BME280;3807;49.030;8.714;2024-02-26T06:09:48;97503.53;;;9.22;68.82
7532;BME280;3807;49.030;8.714;2024-02-26T06:12:14;97517.56;;;9.13;68.91
7532;BME280;3807;49.030;8.714;2024-02-26T06:14:39;97508.97;;;9.16;68.99
7532;BME280;3807;49.030;8.714;2024-02-26T06:17:04;97498.53;;;9.20;68.55
7532;BME280;3807;49.030;8.714;2024-02-26T06:19:30;97495.13;;;9.21;69.01
7532;BME280;3807;49.030;8.714;2024-02-26T06:21:55;97498.28;;;9.25;68.92
7532;BME280;3807;49.030;8.714;2024-02-26T06:24:20;97521.63;;;9.01;69.37
7532;BME280;3807;49.030;8.714;2024-02-26T06:26:47;97514.66;;;9.05;68.78
7532;BME280;3807;49.030;8.714;2024-02-26T06:29:13;97520.66;;;8.88;69.47
7532;BME280;3807;49.030;8.714;2024-02-26T06:31:38;97524.91;;;9.03;69.01
7532;BME280;3807;49.030;8.714;2024-02-26T06:34:03;97540.53;;;9.12;69.05
7532;BME280;3807;49.030;8.714;2024-02-26T06:36:29;97539.44;;;9.16;68.48
7532;BME280;3807;49.030;8.714;2024-02-26T06:38:56;97530.97;;;9.01;69.02
7532;BME280;3807;49.030;8.714;2024-02-26T06:41:21;97541.25;;;9.14;68.54
7532;BME280;3807;49.030;8.714;2024-02-26T06:43:52;97535.47;;;8.96;68.84
7532;BME280;3807;49.030;8.714;2024-02-26T06:46:17;97537.03;;;8.98;68.91
7532;BME280;3807;49.030;8.714;2024-02-26T06:48:43;97550.28;;;9.03;69.03
7532;BME280;3807;49.030;8.714;2024-02-26T06:51:08;97543.72;;;8.99;68.88
7532;BME280;3807;49.030;8.714;2024-02-26T06:53:33;97549.00;;;8.96;70.68
7532;BME280;3807;49.030;8.714;2024-02-26T06:55:59;97553.88;;;8.99;69.16
7532;BME280;3807;49.030;8.714;2024-02-26T06:58:24;97555.28;;;9.05;68.96
7532;BME280;3807;49.030;8.714;2024-02-26T07:00:49;97566.06;;;9.09;68.25
7532;BME280;3807;49.030;8.714;2024-02-26T07:03:15;97565.84;;;8.97;69.47
7532;BME280;3807;49.030;8.714;2024-02-26T07:05:40;97565.75;;;8.99;69.16
7532;BME280;3807;49.030;8.714;2024-02-26T07:08:06;97563.69;;;9.21;69.03
7532;BME280;3807;49.030;8.714;2024-02-26T07:10:31;97570.81;;;9.15;68.33
7532;BME280;3807;49.030;8.714;2024-02-26T07:12:56;97566.25;;;9.05;68.86
7532;BME280;3807;49.030;8.714;2024-02-26T07:15:22;97571.78;;;9.28;68.61
7532;BME280;3807;49.030;8.714;2024-02-26T07:17:47;97570.59;;;9.34;68.56
7532;BME280;3807;49.030;8.714;2024-02-26T07:20:14;97578.75;;;9.24;68.47
7532;BME280;3807;49.030;8.714;2024-02-26T07:22:39;97567.41;;;9.30;68.67
7532;BME280;3807;49.030;8.714;2024-02-26T07:25:05;97563.78;;;9.34;68.76
7532;BME280;3807;49.030;8.714;2024-02-26T07:27:33;97573.22;;;9.32;67.88
7532;BME280;3807;49.030;8.714;2024-02-26T07:29:58;97582.56;;;9.01;68.96
7532;BME280;3807;49.030;8.714;2024-02-26T07:32:23;97582.72;;;8.98;68.58
7532;BME280;3807;49.030;8.714;2024-02-26T07:34:49;97577.09;;;9.23;68.20
7532;BME280;3807;49.030;8.714;2024-02-26T07:37:14;97582.91;;;9.25;68.64
7532;BME280;3807;49.030;8.714;2024-02-26T07:39:39;97580.50;;;9.08;68.76
7532;BME280;3807;49.030;8.714;2024-02-26T07:42:05;97571.91;;;9.11;68.76
7532;BME280;3807;49.030;8.714;2024-02-26T07:44:30;97576.72;;;9.15;68.45
7532;BME280;3807;49.030;8.714;2024-02-26T07:46:55;97581.78;;;9.15;69.29
7532;BME280;3807;49.030;8.714;2024-02-26T07:49:20;97581.13;;;9.27;69.58
7532;BME280;3807;49.030;8.714;2024-02-26T07:51:46;97581.22;;;9.40;68.39
7532;BME280;3807;49.030;8.714;2024-02-26T07:54:11;97584.69;;;9.39;68.26
7532;BME280;3807;49.030;8.714;2024-02-26T07:56:37;97579.88;;;9.35;68.62
7532;BME280;3807;49.030;8.714;2024-02-26T07:59:03;97584.47;;;9.28;68.57
7532;BME280;3807;49.030;8.714;2024-02-26T08:01:28;97578.38;;;9.30;68.83
7532;BME280;3807;49.030;8.714;2024-02-26T08:03:54;97588.84;;;9.40;69.48
7532;BME280;3807;49.030;8.714;2024-02-26T08:06:19;97569.72;;;9.35;68.58
7532;BME280;3807;49.030;8.714;2024-02-26T08:08:44;97579.56;;;9.25;68.52
7532;BME280;3807;49.030;8.714;2024-02-26T08:11:09;97581.03;;;9.29;68.75
7532;BME280;3807;49.030;8.714;2024-02-26T08:13:35;97574.66;;;9.22;68.95
7532;BME280;3807;49.030;8.714;2024-02-26T08:16:01;97574.69;;;9.36;68.30
7532;BME280;3807;49.030;8.714;2024-02-26T08:18:26;97571.03;;;9.26;68.64
7532;BME280;3807;49.030;8.714;2024-02-26T08:20:51;97573.66;;;9.24;68.84
7532;BME280;3807;49.030;8.714;2024-02-26T08:23:17;97575.38;;;9.24;68.72
7532;BME280;3807;49.030;8.714;2024-02-26T08:25:42;97572.75;;;9.25;68.52
7532;BME280;3807;49.030;8.714;2024-02-26T08:28:08;97576.84;;;9.28;68.67
7532;BME280;3807;49.030;8.714;2024-02-26T08:30:33;97579.03;;;9.34;68.27
7532;BME280;3807;49.030;8.714;2024-02-26T08:32:59;97581.66;;;9.33;68.25
7532;BME280;3807;49.030;8.714;2024-02-26T08:35:24;97584.84;;;9.36;68.82
7532;BME280;3807;49.030;8.714;2024-02-26T08:37:50;97595.28;;;9.32;68.38
7532;BME280;3807;49.030;8.714;2024-02-26T08:40:15;97595.94;;;9.35;67.93
7532;BME280;3807;49.030;8.714;2024-02-26T08:42:41;97596.31;;;9.43;68.91
7532;BME280;3807;49.030;8.714;2024-02-26T08:45:07;97603.50;;;9.51;68.01
7532;BME280;3807;49.030;8.714;2024-02-26T08:47:33;97603.13;;;9.43;67.81
7532;BME280;3807;49.030;8.714;2024-02-26T08:49:58;97599.69;;;9.58;67.45
7532;BME280;3807;49.030;8.714;2024-02-26T08:52:23;97601.41;;;9.58;67.29
7532;BME280;3807;49.030;8.714;2024-02-26T08:54:49;97601.75;;;9.51;68.02
7532;BME280;3807;49.030;8.714;2024-02-26T08:57:15;97606.56;;;9.42;68.07
7532;BME280;3807;49.030;8.714;2024-02-26T08:59:40;97606.13;;;9.49;67.54
7532;BME280;3807;49.030;8.714;2024-02-26T09:02:06;97611.22;;;9.49;67.83
7532;BME280;3807;49.030;8.714;2024-02-26T09:04:33;97598.19;;;9.40;68.29
7532;BME280;3807;49.030;8.714;2024-02-26T09:06:58;97602.66;;;9.50;67.31
7532;BME280;3807;49.030;8.714;2024-02-26T09:09:24;97612.63;;;9.39;68.57
7532;BME280;3807;49.030;8.714;2024-02-26T09:11:51;97612.13;;;9.48;68.05
7532;BME280;3807;49.030;8.714;2024-02-26T09:14:17;97615.22;;;9.53;69.66
7532;BME280;3807;49.030;8.714;2024-02-26T09:16:43;97622.66;;;9.57;69.17
7532;BME280;3807;49.030;8.714;2024-02-26T09:19:08;97615.56;;;9.62;69.35
7532;BME280;3807;49.030;8.714;2024-02-26T09:21:34;97610.66;;;9.59;69.04
7532;BME280;3807;49.030;8.714;2024-02-26T09:23:59;97614.44;;;9.67;69.35
7532;BME280;3807;49.030;8.714;2024-02-26T09:26:24;97612.78;;;9.66;68.75
7532;BME280;3807;49.030;8.714;2024-02-26T09:28:50;97612.53;;;9.71;68.98
7532;BME280;3807;49.030;8.714;2024-02-26T09:31:15;97615.81;;;9.73;69.42
7532;BME280;3807;49.030;8.714;2024-02-26T09:33:43;97617.72;;;9.84;68.70
7532;BME280;3807;49.030;8.714;2024-02-26T09:36:08;97624.16;;;9.75;70.58
7532;BME280;3807;49.030;8.714;2024-02-26T09:38:36;97623.06;;;9.79;69.90
7532;BME280;3807;49.030;8.714;2024-02-26T09:41:06;97620.97;;;9.86;69.50
7532;BME280;3807;49.030;8.714;2024-02-26T09:43:35;97611.44;;;9.89;69.89
7532;BME280;3807;49.030;8.714;2024-02-26T09:46:05;97617.81;;;9.82;68.68
7532;BME280;3807;49.030;8.714;2024-02-26T09:48:31;97622.88;;;9.82;69.01
7532;BME280;3807;49.030;8.714;2024-02-26T09:50:56;97616.72;;;9.86;70.59
7532;BME280;3807;49.030;8.714;2024-02-26T09:53:22;97617.28;;;9.91;70.33
7532;BME280;3807;49.030;8.714;2024-02-26T09:55:48;97617.00;;;9.96;70.02
7532;BME280;3807;49.030;8.714;2024-02-26T09:58:13;97618.47;;;10.00;69.64
7532;BME280;3807;49.030;8.714;2024-02-26T10:00:51;97616.00;;;9.98;70.22
7532;BME280;3807;49.030;8.714;2024-02-26T10:03:18;97631.91;;;10.02;71.08
7532;BME280;3807;49.030;8.714;2024-02-26T10:05:46;97630.75;;;10.08;70.57
7532;BME280;3807;49.030;8.714;2024-02-26T10:08:12;97645.09;;;10.09;69.63
7532;BME280;3807;49.030;8.714;2024-02-26T10:10:38;97648.97;;;10.14;69.79
7532;BME280;3807;49.030;8.714;2024-02-26T10:13:04;97650.34;;;10.20;69.95
7532;BME280;3807;49.030;8.714;2024-02-26T10:15:35;97651.66;;;10.27;69.49
7532;BME280;3807;49.030;8.714;2024-02-26T10:18:04;97651.66;;;10.27;69.33
7532;BME280;3807;49.030;8.714;2024-02-26T10:20:29;97643.03;;;10.30;69.57
7532;BME280;3807;49.030;8.714;2024-02-26T10:22:56;97642.47;;;10.39;69.01
7532;BME280;3807;49.030;8.714;2024-02-26T10:25:22;97635.28;;;10.45;68.31
7532;BME280;3807;49.030;8.714;2024-02-26T10:27:47;97641.94;;;10.34;69.03
7532;BME280;3807;49.030;8.714;2024-02-26T10:30:17;97644.22;;;10.38;69.49
7532;BME280;3807;49.030;8.714;2024-02-26T10:32:44;97639.56;;;10.45;68.99
7532;BME280;3807;49.030;8.714;2024-02-26T10:35:09;97640.22;;;10.48;69.26
7532;BME280;3807;49.030;8.714;2024-02-26T10:37:35;97654.19;;;10.56;68.93
7532;BME280;3807;49.030;8.714;2024-02-26T10:40:01;97659.22;;;10.57;69.33
7532;BME280;3807;49.030;8.714;2024-02-26T10:42:26;97658.94;;;10.62;69.24
7532;BME280;3807;49.030;8.714;2024-02-26T10:44:52;97661.09;;;10.68;69.43
7532;BME280;3807;49.030;8.714;2024-02-26T10:47:17;97666.91;;;10.70;69.74
7532;BME280;3807;49.030;8.714;2024-02-26T10:49:46;97661.91;;;10.68;69.68
7532;BME280;3807;49.030;8.714;2024-02-26T10:52:13;97664.31;;;10.57;69.74
7532;BME280;3807;49.030;8.714;2024-02-26T10:54:41;97668.38;;;10.74;68.98
7532;BME280;3807;49.030;8.714;2024-02-26T10:57:09;97684.81;;;10.83;69.07
7532;BME280;3807;49.030;8.714;2024-02-26T10:59:34;97673.63;;;10.85;69.16
7532;BME280;3807;49.030;8.714;2024-02-26T11:02:00;97674.25;;;10.89;69.09
7532;BME280;3807;49.030;8.714;2024-02-26T11:04:26;97671.44;;;10.93;68.51
7532;BME280;3807;49.030;8.714;2024-02-26T11:06:54;97670.63;;;10.93;68.66
7532;BME280;3807;49.030;8.714;2024-02-26T11:09:22;97674.75;;;11.08;68.44
7532;BME280;3807;49.030;8.714;2024-02-26T11:11:48;97668.28;;;11.17;68.26
7532;BME280;3807;49.030;8.714;2024-02-26T11:14:15;97675.09;;;11.16;68.48
7532;BME280;3807;49.030;8.714;2024-02-26T11:16:42;97666.25;;;11.22;67.97
7532;BME280;3807;49.030;8.714;2024-02-26T11:19:09;97670.97;;;11.28;67.41
7532;BME280;3807;49.030;8.714;2024-02-26T11:21:36;97673.63;;;11.27;67.37
7532;BME280;3807;49.030;8.714;2024-02-26T11:24:07;97677.75;;;11.42;67.60
7532;BME280;3807;49.030;8.714;2024-02-26T11:26:37;97673.69;;;11.52;67.07
7532;BME280;3807;49.030;8.714;2024-02-26T11:29:04;97672.59;;;11.56;67.96
7532;BME280;3807;49.030;8.714;2024-02-26T11:31:30;97663.41;;;11.54;67.01
7532;BME280;3807;49.030;8.714;2024-02-26T11:33:57;97665.16;;;11.66;66.85
7532;BME280;3807;49.030;8.714;2024-02-26T11:36:23;97664.97;;;11.69;67.09
7532;BME280;3807;49.030;8.714;2024-02-26T11:38:50;97661.38;;;11.86;66.65
7532;BME280;3807;49.030;8.714;2024-02-26T11:41:18;97662.78;;;11.90;66.31
7532;BME280;3807;49.030;8.714;2024-02-26T11:43:51;97663.03;;;12.00;66.63
7532;BME280;3807;49.030;8.714;2024-02-26T11:46:26;97667.09;;;12.15;66.02
7532;BME280;3807;49.030;8.714;2024-02-26T11:48:55;97667.22;;;12.13;66.37
7532;BME280;3807;49.030;8.714;2024-02-26T11:51:28;97663.41;;;12.19;66.11
7532;BME280;3807;49.030;8.714;2024-02-26T11:53:57;97670.34;;;12.30;66.55
7532;BME280;3807;49.030;8.714;2024-02-26T11:56:24;97665.47;;;12.39;66.04
7532;BME280;3807;49.030;8.714;2024-02-26T11:58:58;97667.69;;;12.44;65.87
7532;BME280;3807;49.030;8.714;2024-02-26T12:01:41;97666.66;;;12.47;66.38
7532;BME280;3807;49.030;8.714;2024-02-26T12:04:11;97664.31;;;12.56;65.56
7532;BME280;3807;49.030;8.714;2024-02-26T12:06:49;97666.03;;;12.69;65.09
7532;BME280;3807;49.030;8.714;2024-02-26T12:09:35;97670.72;;;12.75;65.54
7532;BME280;3807;49.030;8.714;2024-02-26T12:12:03;97674.81;;;12.77;65.57
7532;BME280;3807;49.030;8.714;2024-02-26T12:14:29;97672.66;;;12.84;65.35
7532;BME280;3807;49.030;8.714;2024-02-26T12:16:55;97683.66;;;12.97;65.70
7532;BME280;3807;49.030;8.714;2024-02-26T12:19:21;97689.63;;;13.09;65.07
7532;BME280;3807;49.030;8.714;2024-02-26T12:21:51;97683.59;;;13.10;64.76
7532;BME280;3807;49.030;8.714;2024-02-26T12:24:17;97692.19;;;13.09;65.14
7532;BME280;3807;49.030;8.714;2024-02-26T12:26:43;97700.25;;;13.16;64.53
7532;BME280;3807;49.030;8.714;2024-02-26T12:29:09;97697.78;;;13.14;64.83
7532;BME280;3807;49.030;8.714;2024-02-26T12:31:36;97693.59;;;13.26;64.52
7532;BME280;3807;49.030;8.714;2024-02-26T12:34:03;97690.50;;;13.33;64.53
7532;BME280;3807;49.030;8.714;2024-02-26T12:36:28;97685.22;;;13.48;63.53
7532;BME280;3807;49.030;8.714;2024-02-26T12:38:54;97695.22;;;13.51;65.47
7532;BME280;3807;49.030;8.714;2024-02-26T12:41:20;97695.69;;;13.56;63.61
7532;BME280;3807;49.030;8.714;2024-02-26T12:43:46;97701.56;;;13.69;62.81
7532;BME280;3807;49.030;8.714;2024-02-26T12:46:11;97698.94;;;13.71;62.72
7532;BME280;3807;49.030;8.714;2024-02-26T12:48:38;97697.34;;;13.81;63.02
7532;BME280;3807;49.030;8.714;2024-02-26T12:51:04;97691.16;;;13.83;62.90
7532;BME280;3807;49.030;8.714;2024-02-26T12:53:30;97702.44;;;13.81;64.12
7532;BME280;3807;49.030;8.714;2024-02-26T12:55:55;97703.03;;;13.85;62.71
7532;BME280;3807;49.030;8.714;2024-02-26T12:58:22;97696.66;;;13.90;64.81
7532;BME280;3807;49.030;8.714;2024-02-26T13:00:51;97697.72;;;13.99;64.71
7532;BME280;3807;49.030;8.714;2024-02-26T13:03:17;97705.41;;;13.99;63.15
7532;BME280;3807;49.030;8.714;2024-02-26T13:05:43;97704.72;;;14.08;62.80
7532;BME280;3807;49.030;8.714;2024-02-26T13:08:10;97699.81;;;14.05;63.49
7532;BME280;3807;49.030;8.714;2024-02-26T13:10:35;97706.47;;;14.19;61.99
7532;BME280;3807;49.030;8.714;2024-02-26T13:13:02;97705.66;;;14.18;61.64
7532;BME280;3807;49.030;8.714;2024-02-26T13:15:28;97703.22;;;14.17;63.25
7532;BME280;3807;49.030;8.714;2024-02-26T13:17:53;97719.56;;;14.27;62.23
7532;BME280;3807;49.030;8.714;2024-02-26T13:20:28;97722.56;;;14.32;61.30
7532;BME280;3807;49.030;8.714;2024-02-26T13:23:04;97721.88;;;14.30;62.26